sensor_id;sensor_type;location;lat;lon;timestamp;pressure;altitude;pressure_sealevel;temperature
69420;BMP280;56612;52.030;113.524;2023-02-28T00:02:23;94092.19;;;-9.32
69420;BMP280;56612;52.030;113.524;2023-02-28T00:05:28;94098.69;;;-9.25
69420;BMP280;56612;52.030;113.524;2023-02-28T00:08:32;94103.56;;;-9.16
69420;BMP280;56612;52.030;113.524;2023-02-28T00:11:37;94100.09;;;-9.24
69420;BMP280;56612;52.030;113.524;2023-02-28T00:14:41;94106.09;;;-9.11
69420;BMP280;56612;52.030;113.524;2023-02-28T00:17:44;94108.09;;;-8.98
69420;BMP280;56612;52.030;113.524;2023-02-28T00:20:48;94105.38;;;-8.81
69420;BMP280;56612;52.030;113.524;2023-02-28T00:23:51;94110.41;;;-8.64
69420;BMP280;56612;52.030;113.524;2023-02-28T00:26:55;94117.59;;;-8.57
69420;BMP280;56612;52.030;113.524;2023-02-28T00:29:59;94121.53;;;-8.50
69420;BMP280;56612;52.030;113.524;2023-02-28T00:33:04;94116.03;;;-8.41
69420;BMP280;56612;52.030;113.524;2023-02-28T00:36:10;94111.09;;;-8.64
69420;BMP280;56612;52.030;113.524;2023-02-28T00:39:14;94112.28;;;-8.65
69420;BMP280;56612;52.030;113.524;2023-02-28T00:42:18;94111.50;;;-8.60
69420;BMP280;56612;52.030;113.524;2023-02-28T00:45:22;94116.19;;;-8.34
69420;BMP280;56612;52.030;113.524;2023-02-28T00:48:26;94113.53;;;-8.09
69420;BMP280;56612;52.030;113.524;2023-02-28T00:51:29;94105.75;;;-7.90
69420;BMP280;56612;52.030;113.524;2023-02-28T00:54:33;94102.38;;;-7.85
69420;BMP280;56612;52.030;113.524;2023-02-28T00:57:37;94117.47;;;-7.52
69420;BMP280;56612;52.030;113.524;2023-02-28T01:00:40;94116.44;;;-7.30
69420;BMP280;56612;52.030;113.524;2023-02-28T01:03:46;94109.19;;;-7.05
69420;BMP280;56612;52.030;113.524;2023-02-28T01:06:49;94110.00;;;-6.44
69420;BMP280;56612;52.030;113.524;2023-02-28T01:09:54;94108.53;;;-6.18
69420;BMP280;56612;52.030;113.524;2023-02-28T01:12:59;94109.56;;;-5.87
69420;BMP280;56612;52.030;113.524;2023-02-28T01:16:02;94111.66;;;-5.44
69420;BMP280;56612;52.030;113.524;2023-02-28T01:19:06;94118.47;;;-4.91
69420;BMP280;56612;52.030;113.524;2023-02-28T01:22:12;94110.41;;;-4.72
69420;BMP280;56612;52.030;113.524;2023-02-28T01:25:16;94104.81;;;-4.76
69420;BMP280;56612;52.030;113.524;2023-02-28T01:28:20;94101.34;;;-4.71
69420;BMP280;56612;52.030;113.524;2023-02-28T01:31:24;94106.09;;;-4.62
69420;BMP280;56612;52.030;113.524;2023-02-28T01:34:30;94113.53;;;-4.22
69420;BMP280;56612;52.030;113.524;2023-02-28T01:37:34;94112.94;;;-3.85
69420;BMP280;56612;52.030;113.524;2023-02-28T01:40:37;94111.91;;;-3.59
69420;BMP280;56612;52.030;113.524;2023-02-28T01:46:48;94118.72;;;-3.48
69420;BMP280;56612;52.030;113.524;2023-02-28T01:49:52;94119.78;;;-3.21
69420;BMP280;56612;52.030;113.524;2023-02-28T01:52:59;94121.06;;;-2.74
69420;BMP280;56612;52.030;113.524;2023-02-28T01:56:07;94117.25;;;-2.80
69420;BMP280;56612;52.030;113.524;2023-02-28T01:59:22;94119.72;;;-3.05
69420;BMP280;56612;52.030;113.524;2023-02-28T02:02:29;94106.47;;;-2.92
69420;BMP280;56612;52.030;113.524;2023-02-28T02:05:33;94121.50;;;-3.16
69420;BMP280;56612;52.030;113.524;2023-02-28T02:08:37;94114.53;;;-3.66
69420;BMP280;56612;52.030;113.524;2023-02-28T02:11:43;94110.38;;;-3.39
69420;BMP280;56612;52.030;113.524;2023-02-28T02:15:21;94118.03;;;-3.49
69420;BMP280;56612;52.030;113.524;2023-02-28T02:18:43;94100.03;;;-4.06
69420;BMP280;56612;52.030;113.524;2023-02-28T02:22:18;94105.81;;;-3.23
69420;BMP280;56612;52.030;113.524;2023-02-28T02:28:59;94100.16;;;-2.34
69420;BMP280;56612;52.030;113.524;2023-02-28T02:35:26;94104.44;;;-3.47
69420;BMP280;56612;52.030;113.524;2023-02-28T02:42:03;94094.31;;;-2.49
69420;BMP280;56612;52.030;113.524;2023-02-28T02:48:31;94094.41;;;-0.36
69420;BMP280;56612;52.030;113.524;2023-02-28T02:51:38;94096.69;;;0.04
69420;BMP280;56612;52.030;113.524;2023-02-28T02:54:46;94086.44;;;0.93
69420;BMP280;56612;52.030;113.524;2023-02-28T02:57:58;94092.84;;;1.29
69420;BMP280;56612;52.030;113.524;2023-02-28T03:01:03;94081.13;;;0.35
69420;BMP280;56612;52.030;113.524;2023-02-28T03:04:12;94080.22;;;0.88
69420;BMP280;56612;52.030;113.524;2023-02-28T03:07:16;94087.31;;;1.05
69420;BMP280;56612;52.030;113.524;2023-02-28T03:10:34;94076.75;;;1.25
69420;BMP280;56612;52.030;113.524;2023-02-28T03:21:03;94071.03;;;1.88
69420;BMP280;56612;52.030;113.524;2023-02-28T03:24:43;94070.03;;;1.53
69420;BMP280;56612;52.030;113.524;2023-02-28T03:31:15;94052.09;;;2.65
69420;BMP280;56612;52.030;113.524;2023-02-28T03:34:31;94047.06;;;2.05
69420;BMP280;56612;52.030;113.524;2023-02-28T03:37:39;94046.63;;;1.88
69420;BMP280;56612;52.030;113.524;2023-02-28T03:40:49;94049.00;;;2.57
69420;BMP280;56612;52.030;113.524;2023-02-28T03:43:56;94031.69;;;2.99
69420;BMP280;56612;52.030;113.524;2023-02-28T03:47:05;94034.31;;;3.79
69420;BMP280;56612;52.030;113.524;2023-02-28T03:50:33;94026.16;;;2.83
69420;BMP280;56612;52.030;113.524;2023-02-28T03:53:59;94026.94;;;1.48
69420;BMP280;56612;52.030;113.524;2023-02-28T03:57:20;94029.53;;;1.89
69420;BMP280;56612;52.030;113.524;2023-02-28T04:00:38;94020.13;;;2.71
69420;BMP280;56612;52.030;113.524;2023-02-28T04:03:42;94024.44;;;3.00
69420;BMP280;56612;52.030;113.524;2023-02-28T04:06:50;94032.78;;;3.17
69420;BMP280;56612;52.030;113.524;2023-02-28T04:09:53;94013.25;;;3.93
69420;BMP280;56612;52.030;113.524;2023-02-28T04:12:57;94006.94;;;4.35
69420;BMP280;56612;52.030;113.524;2023-02-28T04:16:01;94011.25;;;4.79
69420;BMP280;56612;52.030;113.524;2023-02-28T04:19:07;94008.19;;;4.71
69420;BMP280;56612;52.030;113.524;2023-02-28T04:22:10;94009.78;;;6.25
69420;BMP280;56612;52.030;113.524;2023-02-28T04:25:14;94002.59;;;6.57
69420;BMP280;56612;52.030;113.524;2023-02-28T04:28:18;94003.28;;;7.68
69420;BMP280;56612;52.030;113.524;2023-02-28T04:31:21;93992.84;;;6.77
69420;BMP280;56612;52.030;113.524;2023-02-28T04:34:30;93986.06;;;4.27
69420;BMP280;56612;52.030;113.524;2023-02-28T04:37:33;93985.53;;;4.42
69420;BMP280;56612;52.030;113.524;2023-02-28T04:40:40;93981.44;;;2.10
69420;BMP280;56612;52.030;113.524;2023-02-28T04:43:43;93968.31;;;1.07
69420;BMP280;56612;52.030;113.524;2023-02-28T04:46:47;93965.59;;;1.67
69420;BMP280;56612;52.030;113.524;2023-02-28T04:49:51;93963.47;;;1.75
69420;BMP280;56612;52.030;113.524;2023-02-28T04:52:54;93957.59;;;1.55
69420;BMP280;56612;52.030;113.524;2023-02-28T04:55:57;93946.44;;;1.66
69420;BMP280;56612;52.030;113.524;2023-02-28T04:59:01;93950.66;;;1.60
69420;BMP280;56612;52.030;113.524;2023-02-28T05:02:05;93945.09;;;0.84
69420;BMP280;56612;52.030;113.524;2023-02-28T05:05:10;93934.59;;;0.36
69420;BMP280;56612;52.030;113.524;2023-02-28T05:08:19;93925.03;;;-0.18
69420;BMP280;56612;52.030;113.524;2023-02-28T05:11:26;93921.22;;;-0.44
69420;BMP280;56612;52.030;113.524;2023-02-28T05:14:32;93915.28;;;-0.44
69420;BMP280;56612;52.030;113.524;2023-02-28T05:17:36;93907.53;;;-0.52
69420;BMP280;56612;52.030;113.524;2023-02-28T05:20:40;93902.25;;;-0.98
69420;BMP280;56612;52.030;113.524;2023-02-28T05:23:43;93898.53;;;-0.95
69420;BMP280;56612;52.030;113.524;2023-02-28T05:26:51;93896.03;;;-0.57
69420;BMP280;56612;52.030;113.524;2023-02-28T05:29:55;93898.94;;;0.04
69420;BMP280;56612;52.030;113.524;2023-02-28T05:32:59;93889.78;;;0.34
69420;BMP280;56612;52.030;113.524;2023-02-28T05:36:03;93893.28;;;0.86
69420;BMP280;56612;52.030;113.524;2023-02-28T05:39:07;93897.69;;;0.94
69420;BMP280;56612;52.030;113.524;2023-02-28T05:42:16;93890.06;;;-0.20
69420;BMP280;56612;52.030;113.524;2023-02-28T05:45:19;93889.44;;;-0.48
69420;BMP280;56612;52.030;113.524;2023-02-28T05:48:22;93877.28;;;-0.34
69420;BMP280;56612;52.030;113.524;2023-02-28T05:51:26;93887.72;;;-0.07
69420;BMP280;56612;52.030;113.524;2023-02-28T05:54:31;93878.03;;;-0.04
69420;BMP280;56612;52.030;113.524;2023-02-28T05:57:34;93876.53;;;-0.07
69420;BMP280;56612;52.030;113.524;2023-02-28T06:00:37;93869.19;;;-0.28
69420;BMP280;56612;52.030;113.524;2023-02-28T06:03:43;93870.84;;;-0.23
69420;BMP280;56612;52.030;113.524;2023-02-28T06:06:47;93869.56;;;-0.32
69420;BMP280;56612;52.030;113.524;2023-02-28T06:09:51;93867.09;;;-1.22
69420;BMP280;56612;52.030;113.524;2023-02-28T06:12:54;93863.78;;;-1.40
69420;BMP280;56612;52.030;113.524;2023-02-28T06:16:00;93863.72;;;-1.32
69420;BMP280;56612;52.030;113.524;2023-02-28T06:19:04;93855.72;;;-0.98
69420;BMP280;56612;52.030;113.524;2023-02-28T06:22:07;93855.84;;;-0.59
69420;BMP280;56612;52.030;113.524;2023-02-28T06:25:12;93860.13;;;-0.54
69420;BMP280;56612;52.030;113.524;2023-02-28T06:28:16;93855.00;;;-0.62
69420;BMP280;56612;52.030;113.524;2023-02-28T06:31:20;93847.81;;;-0.71
69420;BMP280;56612;52.030;113.524;2023-02-28T06:34:24;93844.00;;;-0.87
69420;BMP280;56612;52.030;113.524;2023-02-28T06:37:28;93841.91;;;-0.98
69420;BMP280;56612;52.030;113.524;2023-02-28T06:40:31;93845.00;;;-0.82
69420;BMP280;56612;52.030;113.524;2023-02-28T06:43:40;93840.19;;;-0.76
69420;BMP280;56612;52.030;113.524;2023-02-28T06:46:45;93827.94;;;-1.10
69420;BMP280;56612;52.030;113.524;2023-02-28T06:49:49;93834.09;;;-1.16
69420;BMP280;56612;52.030;113.524;2023-02-28T06:52:53;93836.50;;;-1.10
69420;BMP280;56612;52.030;113.524;2023-02-28T06:55:57;93850.31;;;3.02
69420;BMP280;56612;52.030;113.524;2023-02-28T06:59:00;93861.69;;;7.36
69420;BMP280;56612;52.030;113.524;2023-02-28T07:02:04;93855.84;;;6.25
69420;BMP280;56612;52.030;113.524;2023-02-28T07:05:09;93859.59;;;6.51
69420;BMP280;56612;52.030;113.524;2023-02-28T07:08:12;93858.06;;;5.42
69420;BMP280;56612;52.030;113.524;2023-02-28T07:11:16;93851.31;;;4.06
69420;BMP280;56612;52.030;113.524;2023-02-28T07:14:19;93850.88;;;3.00
69420;BMP280;56612;52.030;113.524;2023-02-28T07:17:23;93841.38;;;2.15
69420;BMP280;56612;52.030;113.524;2023-02-28T07:20:26;93838.31;;;1.22
69420;BMP280;56612;52.030;113.524;2023-02-28T07:23:29;93836.13;;;0.17
69420;BMP280;56612;52.030;113.524;2023-02-28T07:26:32;93844.88;;;-0.19
69420;BMP280;56612;52.030;113.524;2023-02-28T07:29:37;93842.66;;;-1.42
69420;BMP280;56612;52.030;113.524;2023-02-28T07:32:41;93841.16;;;-1.45
69420;BMP280;56612;52.030;113.524;2023-02-28T07:35:46;93838.47;;;-1.55
69420;BMP280;56612;52.030;113.524;2023-02-28T07:38:50;93845.53;;;-1.75
69420;BMP280;56612;52.030;113.524;2023-02-28T07:41:53;93842.75;;;-1.94
69420;BMP280;56612;52.030;113.524;2023-02-28T07:45:01;93840.75;;;-2.03
69420;BMP280;56612;52.030;113.524;2023-02-28T07:48:04;93855.81;;;-1.05
69420;BMP280;56612;52.030;113.524;2023-02-28T07:51:07;93855.53;;;1.98
69420;BMP280;56612;52.030;113.524;2023-02-28T07:54:10;93852.91;;;2.43
69420;BMP280;56612;52.030;113.524;2023-02-28T07:57:14;93855.06;;;0.35
69420;BMP280;56612;52.030;113.524;2023-02-28T08:00:19;93858.84;;;0.73
69420;BMP280;56612;52.030;113.524;2023-02-28T08:03:23;93862.84;;;2.21
69420;BMP280;56612;52.030;113.524;2023-02-28T08:06:27;93867.94;;;2.41
69420;BMP280;56612;52.030;113.524;2023-02-28T08:09:30;93856.50;;;1.60
69420;BMP280;56612;52.030;113.524;2023-02-28T08:12:34;93856.91;;;2.32
69420;BMP280;56612;52.030;113.524;2023-02-28T08:15:40;93856.97;;;2.56
69420;BMP280;56612;52.030;113.524;2023-02-28T08:18:44;93852.06;;;1.63
69420;BMP280;56612;52.030;113.524;2023-02-28T08:21:47;93857.41;;;-0.37
69420;BMP280;56612;52.030;113.524;2023-02-28T08:24:51;93848.75;;;-1.66
69420;BMP280;56612;52.030;113.524;2023-02-28T08:27:55;93852.22;;;-1.64
69420;BMP280;56612;52.030;113.524;2023-02-28T08:30:58;93855.69;;;-1.34
69420;BMP280;56612;52.030;113.524;2023-02-28T08:34:08;93856.53;;;-0.95
69420;BMP280;56612;52.030;113.524;2023-02-28T08:37:13;93860.22;;;-0.71
69420;BMP280;56612;52.030;113.524;2023-02-28T08:40:17;93853.31;;;-0.76
69420;BMP280;56612;52.030;113.524;2023-02-28T08:43:23;93854.78;;;-0.37
69420;BMP280;56612;52.030;113.524;2023-02-28T08:46:27;93868.78;;;0.14
69420;BMP280;56612;52.030;113.524;2023-02-28T08:49:30;93855.91;;;-0.86
69420;BMP280;56612;52.030;113.524;2023-02-28T08:52:35;93853.72;;;-2.47
69420;BMP280;56612;52.030;113.524;2023-02-28T08:55:38;93852.81;;;-3.17
69420;BMP280;56612;52.030;113.524;2023-02-28T08:58:42;93858.53;;;-3.51
69420;BMP280;56612;52.030;113.524;2023-02-28T09:01:46;93857.78;;;-3.36
69420;BMP280;56612;52.030;113.524;2023-02-28T09:04:50;93844.00;;;-3.37
69420;BMP280;56612;52.030;113.524;2023-02-28T09:07:53;93848.06;;;-3.11
69420;BMP280;56612;52.030;113.524;2023-02-28T09:10:58;93855.47;;;-2.25
69420;BMP280;56612;52.030;113.524;2023-02-28T09:14:04;93859.56;;;-0.62
69420;BMP280;56612;52.030;113.524;2023-02-28T09:17:07;93863.66;;;-1.15
69420;BMP280;56612;52.030;113.524;2023-02-28T09:20:12;93869.19;;;0.30
69420;BMP280;56612;52.030;113.524;2023-02-28T09:23:16;93860.31;;;1.48
69420;BMP280;56612;52.030;113.524;2023-02-28T09:26:23;93872.38;;;0.09
69420;BMP280;56612;52.030;113.524;2023-02-28T09:29:27;93864.19;;;-0.90
69420;BMP280;56612;52.030;113.524;2023-02-28T09:32:30;93884.63;;;-1.59
69420;BMP280;56612;52.030;113.524;2023-02-28T09:35:35;93880.88;;;-2.01
69420;BMP280;56612;52.030;113.524;2023-02-28T09:38:39;93874.03;;;-2.55
69420;BMP280;56612;52.030;113.524;2023-02-28T09:41:45;93874.53;;;-2.82
69420;BMP280;56612;52.030;113.524;2023-02-28T09:44:53;93874.94;;;-3.18
69420;BMP280;56612;52.030;113.524;2023-02-28T09:47:59;93870.72;;;-3.46
69420;BMP280;56612;52.030;113.524;2023-02-28T09:51:23;93885.53;;;-3.56
69420;BMP280;56612;52.030;113.524;2023-02-28T09:54:32;93884.22;;;-3.80
69420;BMP280;56612;52.030;113.524;2023-02-28T09:57:38;93878.16;;;-3.90
69420;BMP280;56612;52.030;113.524;2023-02-28T10:00:43;93873.13;;;-4.19
69420;BMP280;56612;52.030;113.524;2023-02-28T10:04:00;93878.03;;;-4.46
69420;BMP280;56612;52.030;113.524;2023-02-28T10:10:50;93872.25;;;-4.60
69420;BMP280;56612;52.030;113.524;2023-02-28T10:14:04;93869.47;;;-4.69
69420;BMP280;56612;52.030;113.524;2023-02-28T10:17:26;93880.44;;;-4.63
69420;BMP280;56612;52.030;113.524;2023-02-28T10:20:37;93891.03;;;-4.61
69420;BMP280;56612;52.030;113.524;2023-02-28T10:23:42;93896.09;;;-4.71
69420;BMP280;56612;52.030;113.524;2023-02-28T10:26:48;93898.84;;;-4.76
69420;BMP280;56612;52.030;113.524;2023-02-28T10:29:58;93900.06;;;-4.70
69420;BMP280;56612;52.030;113.524;2023-02-28T10:33:02;93888.41;;;-4.76
69420;BMP280;56612;52.030;113.524;2023-02-28T10:36:13;93908.78;;;-4.67
69420;BMP280;56612;52.030;113.524;2023-02-28T10:43:05;93894.50;;;-4.82
69420;BMP280;56612;52.030;113.524;2023-02-28T10:46:16;93894.84;;;-4.85
69420;BMP280;56612;52.030;113.524;2023-02-28T10:49:30;93898.13;;;-5.00
69420;BMP280;56612;52.030;113.524;2023-02-28T10:52:40;93895.09;;;-5.19
69420;BMP280;56612;52.030;113.524;2023-02-28T10:56:14;93900.63;;;-5.30
69420;BMP280;56612;52.030;113.524;2023-02-28T10:59:27;93895.72;;;-5.34
69420;BMP280;56612;52.030;113.524;2023-02-28T11:02:36;93898.69;;;-5.38
69420;BMP280;56612;52.030;113.524;2023-02-28T11:05:46;93897.75;;;-5.48
69420;BMP280;56612;52.030;113.524;2023-02-28T11:08:52;93891.06;;;-5.64
69420;BMP280;56612;52.030;113.524;2023-02-28T11:11:56;93893.16;;;-5.70
69420;BMP280;56612;52.030;113.524;2023-02-28T11:15:03;93890.16;;;-5.74
69420;BMP280;56612;52.030;113.524;2023-02-28T11:21:27;93909.03;;;-5.81
69420;BMP280;56612;52.030;113.524;2023-02-28T11:24:45;93905.81;;;-5.95
69420;BMP280;56612;52.030;113.524;2023-02-28T11:27:57;93905.31;;;-5.94
69420;BMP280;56612;52.030;113.524;2023-02-28T11:34:26;93908.75;;;-5.99
69420;BMP280;56612;52.030;113.524;2023-02-28T11:37:31;93907.63;;;-6.11
69420;BMP280;56612;52.030;113.524;2023-02-28T11:44:04;93911.69;;;-6.23
69420;BMP280;56612;52.030;113.524;2023-02-28T11:47:17;93921.06;;;-6.20
69420;BMP280;56612;52.030;113.524;2023-02-28T11:50:46;93915.81;;;-6.28
69420;BMP280;56612;52.030;113.524;2023-02-28T12:04:52;93913.84;;;-6.35
69420;BMP280;56612;52.030;113.524;2023-02-28T12:07:50;93928.38;;;-6.39
69420;BMP280;56612;52.030;113.524;2023-02-28T12:14:19;93924.09;;;-6.71
69420;BMP280;56612;52.030;113.524;2023-02-28T12:27:29;93920.41;;;-6.76
69420;BMP280;56612;52.030;113.524;2023-02-28T12:30:37;93921.91;;;-6.80
69420;BMP280;56612;52.030;113.524;2023-02-28T12:33:48;93932.81;;;-6.82
69420;BMP280;56612;52.030;113.524;2023-02-28T12:36:56;93927.16;;;-6.93
69420;BMP280;56612;52.030;113.524;2023-02-28T12:40:04;93934.13;;;-6.88
69420;BMP280;56612;52.030;113.524;2023-02-28T12:43:12;93935.66;;;-6.93
69420;BMP280;56612;52.030;113.524;2023-02-28T12:46:28;93925.59;;;-7.10
69420;BMP280;56612;52.030;113.524;2023-02-28T12:49:38;93932.09;;;-7.16
69420;BMP280;56612;52.030;113.524;2023-02-28T12:52:56;93933.38;;;-7.10
69420;BMP280;56612;52.030;113.524;2023-02-28T12:56:09;93938.34;;;-7.12
69420;BMP280;56612;52.030;113.524;2023-02-28T13:09:09;93955.47;;;-7.30
69420;BMP280;56612;52.030;113.524;2023-02-28T13:12:14;93954.66;;;-7.38
69420;BMP280;56612;52.030;113.524;2023-02-28T13:15:25;93963.06;;;-7.45
69420;BMP280;56612;52.030;113.524;2023-02-28T13:18:34;93960.75;;;-7.49
69420;BMP280;56612;52.030;113.524;2023-02-28T13:21:44;93968.50;;;-7.62
69420;BMP280;56612;52.030;113.524;2023-02-28T13:24:53;93974.03;;;-7.65
69420;BMP280;56612;52.030;113.524;2023-02-28T13:27:57;93965.03;;;-7.64
69420;BMP280;56612;52.030;113.524;2023-02-28T13:31:05;93974.91;;;-7.63
69420;BMP280;56612;52.030;113.524;2023-02-28T13:34:14;93973.09;;;-7.81
69420;BMP280;56612;52.030;113.524;2023-02-28T13:40:30;93977.88;;;-7.85
69420;BMP280;56612;52.030;113.524;2023-02-28T13:53:56;93981.84;;;-7.97
69420;BMP280;56612;52.030;113.524;2023-02-28T14:07:55;94000.81;;;-8.21
69420;BMP280;56612;52.030;113.524;2023-02-28T14:11:06;94002.41;;;-8.18
69420;BMP280;56612;52.030;113.524;2023-02-28T14:17:40;93994.13;;;-8.36
69420;BMP280;56612;52.030;113.524;2023-02-28T14:20:46;93986.59;;;-8.34
69420;BMP280;56612;52.030;113.524;2023-02-28T14:34:49;94006.16;;;-8.51
69420;BMP280;56612;52.030;113.524;2023-02-28T14:37:54;93993.72;;;-8.59
69420;BMP280;56612;52.030;113.524;2023-02-28T14:41:01;93996.97;;;-8.71
69420;BMP280;56612;52.030;113.524;2023-02-28T14:44:35;93997.66;;;-8.71
69420;BMP280;56612;52.030;113.524;2023-02-28T14:47:39;93994.78;;;-8.86
69420;BMP280;56612;52.030;113.524;2023-02-28T14:50:49;93998.88;;;-8.96
69420;BMP280;56612;52.030;113.524;2023-02-28T14:53:59;94003.13;;;-8.99
69420;BMP280;56612;52.030;113.524;2023-02-28T14:57:04;94003.13;;;-8.99
69420;BMP280;56612;52.030;113.524;2023-02-28T15:00:25;94012.97;;;-8.92
69420;BMP280;56612;52.030;113.524;2023-02-28T15:03:39;94012.69;;;-8.88
69420;BMP280;56612;52.030;113.524;2023-02-28T15:06:45;94011.84;;;-8.96
69420;BMP280;56612;52.030;113.524;2023-02-28T15:09:49;94004.28;;;-8.94
69420;BMP280;56612;52.030;113.524;2023-02-28T15:13:13;94000.72;;;-8.91
69420;BMP280;56612;52.030;113.524;2023-02-28T15:16:31;94004.53;;;-8.98
69420;BMP280;56612;52.030;113.524;2023-02-28T15:19:40;94006.06;;;-9.08
69420;BMP280;56612;52.030;113.524;2023-02-28T15:22:46;94002.63;;;-9.16
69420;BMP280;56612;52.030;113.524;2023-02-28T15:25:51;94008.72;;;-9.14
69420;BMP280;56612;52.030;113.524;2023-02-28T15:29:06;94000.59;;;-9.23
69420;BMP280;56612;52.030;113.524;2023-02-28T15:35:32;94016.13;;;-9.23
69420;BMP280;56612;52.030;113.524;2023-02-28T15:38:36;94005.09;;;-9.29
69420;BMP280;56612;52.030;113.524;2023-02-28T15:41:39;94009.81;;;-9.28
69420;BMP280;56612;52.030;113.524;2023-02-28T15:44:43;94012.72;;;-9.37
69420;BMP280;56612;52.030;113.524;2023-02-28T15:47:47;94014.22;;;-9.53
69420;BMP280;56612;52.030;113.524;2023-02-28T15:50:53;94019.00;;;-9.63
69420;BMP280;56612;52.030;113.524;2023-02-28T15:54:22;94024.28;;;-9.74
69420;BMP280;56612;52.030;113.524;2023-02-28T15:57:28;94029.75;;;-9.83
69420;BMP280;56612;52.030;113.524;2023-02-28T16:00:33;94031.81;;;-9.76
69420;BMP280;56612;52.030;113.524;2023-02-28T16:03:48;94037.19;;;-9.68
69420;BMP280;56612;52.030;113.524;2023-02-28T16:10:04;94041.03;;;-9.80
69420;BMP280;56612;52.030;113.524;2023-02-28T16:13:09;94044.75;;;-9.76
69420;BMP280;56612;52.030;113.524;2023-02-28T16:16:21;94035.13;;;-9.81
69420;BMP280;56612;52.030;113.524;2023-02-28T16:19:25;94037.53;;;-9.89
69420;BMP280;56612;52.030;113.524;2023-02-28T16:22:28;94043.22;;;-9.90
69420;BMP280;56612;52.030;113.524;2023-02-28T16:25:41;94033.66;;;-10.01
69420;BMP280;56612;52.030;113.524;2023-02-28T16:28:45;94044.44;;;-10.02
69420;BMP280;56612;52.030;113.524;2023-02-28T16:31:49;94033.41;;;-10.03
69420;BMP280;56612;52.030;113.524;2023-02-28T16:34:53;94050.31;;;-10.02
69420;BMP280;56612;52.030;113.524;2023-02-28T16:37:56;94049.41;;;-10.04
69420;BMP280;56612;52.030;113.524;2023-02-28T16:41:00;94042.38;;;-10.10
69420;BMP280;56612;52.030;113.524;2023-02-28T16:44:10;94048.75;;;-10.16
69420;BMP280;56612;52.030;113.524;2023-02-28T16:47:15;94048.50;;;-10.13
69420;BMP280;56612;52.030;113.524;2023-02-28T16:53:27;94063.75;;;-10.15
69420;BMP280;56612;52.030;113.524;2023-02-28T16:56:30;94081.47;;;-10.36
69420;BMP280;56612;52.030;113.524;2023-02-28T16:59:34;94087.66;;;-10.55
69420;BMP280;56612;52.030;113.524;2023-02-28T17:02:38;94083.66;;;-10.51
69420;BMP280;56612;52.030;113.524;2023-02-28T17:05:43;94088.81;;;-10.51
69420;BMP280;56612;52.030;113.524;2023-02-28T17:08:46;94084.56;;;-10.48
69420;BMP280;56612;52.030;113.524;2023-02-28T17:11:50;94080.34;;;-10.46
69420;BMP280;56612;52.030;113.524;2023-02-28T17:14:53;94069.28;;;-10.41
69420;BMP280;56612;52.030;113.524;2023-02-28T17:17:56;94072.78;;;-10.32
69420;BMP280;56612;52.030;113.524;2023-02-28T17:21:01;94067.38;;;-10.35
69420;BMP280;56612;52.030;113.524;2023-02-28T17:24:05;94070.00;;;-10.40
69420;BMP280;56612;52.030;113.524;2023-02-28T17:27:11;94078.19;;;-10.36
69420;BMP280;56612;52.030;113.524;2023-02-28T17:30:18;94068.56;;;-10.30
69420;BMP280;56612;52.030;113.524;2023-02-28T17:33:23;94073.69;;;-10.24
69420;BMP280;56612;52.030;113.524;2023-02-28T17:36:26;94066.69;;;-10.29
69420;BMP280;56612;52.030;113.524;2023-02-28T17:39:31;94063.41;;;-10.36
69420;BMP280;56612;52.030;113.524;2023-02-28T17:42:35;94062.50;;;-10.44
69420;BMP280;56612;52.030;113.524;2023-02-28T17:45:38;94057.31;;;-10.44
69420;BMP280;56612;52.030;113.524;2023-02-28T17:48:43;94060.63;;;-10.43
69420;BMP280;56612;52.030;113.524;2023-02-28T17:51:47;94061.13;;;-10.50
69420;BMP280;56612;52.030;113.524;2023-02-28T17:54:50;94059.72;;;-10.51
69420;BMP280;56612;52.030;113.524;2023-02-28T17:57:53;94063.47;;;-10.58
69420;BMP280;56612;52.030;113.524;2023-02-28T18:00:57;94057.88;;;-10.68
69420;BMP280;56612;52.030;113.524;2023-02-28T18:04:00;94062.81;;;-10.70
69420;BMP280;56612;52.030;113.524;2023-02-28T18:07:06;94067.78;;;-10.72
69420;BMP280;56612;52.030;113.524;2023-02-28T18:10:14;94067.53;;;-10.74
69420;BMP280;56612;52.030;113.524;2023-02-28T18:13:19;94068.94;;;-10.78
69420;BMP280;56612;52.030;113.524;2023-02-28T18:16:22;94068.47;;;-10.82
69420;BMP280;56612;52.030;113.524;2023-02-28T18:19:25;94072.47;;;-10.87
69420;BMP280;56612;52.030;113.524;2023-02-28T18:22:28;94063.34;;;-10.99
69420;BMP280;56612;52.030;113.524;2023-02-28T18:25:31;94069.22;;;-10.93
69420;BMP280;56612;52.030;113.524;2023-02-28T18:28:34;94066.41;;;-10.95
69420;BMP280;56612;52.030;113.524;2023-02-28T18:31:38;94066.41;;;-11.01
69420;BMP280;56612;52.030;113.524;2023-02-28T18:34:41;94059.63;;;-11.04
69420;BMP280;56612;52.030;113.524;2023-02-28T18:37:44;94054.44;;;-10.98
69420;BMP280;56612;52.030;113.524;2023-02-28T18:40:53;94054.44;;;-10.98
69420;BMP280;56612;52.030;113.524;2023-02-28T18:44:00;94055.63;;;-11.05
69420;BMP280;56612;52.030;113.524;2023-02-28T18:47:21;94058.91;;;-11.10
69420;BMP280;56612;52.030;113.524;2023-02-28T18:50:24;94055.63;;;-11.22
69420;BMP280;56612;52.030;113.524;2023-02-28T18:53:28;94047.69;;;-11.24
69420;BMP280;56612;52.030;113.524;2023-02-28T18:56:31;94057.03;;;-11.21
69420;BMP280;56612;52.030;113.524;2023-02-28T18:59:35;94062.00;;;-11.34
69420;BMP280;56612;52.030;113.524;2023-02-28T19:02:38;94052.13;;;-11.41
69420;BMP280;56612;52.030;113.524;2023-02-28T19:05:42;94069.00;;;-11.40
69420;BMP280;56612;52.030;113.524;2023-02-28T19:08:45;94077.22;;;-11.42
69420;BMP280;56612;52.030;113.524;2023-02-28T19:11:50;94073.69;;;-11.44
69420;BMP280;56612;52.030;113.524;2023-02-28T19:14:53;94072.53;;;-11.43
69420;BMP280;56612;52.030;113.524;2023-02-28T19:17:57;94075.81;;;-11.37
69420;BMP280;56612;52.030;113.524;2023-02-28T19:21:01;94067.84;;;-11.50
69420;BMP280;56612;52.030;113.524;2023-02-28T19:24:05;94072.53;;;-11.54
69420;BMP280;56612;52.030;113.524;2023-02-28T19:27:09;94058.22;;;-11.67
69420;BMP280;56612;52.030;113.524;2023-02-28T19:30:13;94075.81;;;-11.65
69420;BMP280;56612;52.030;113.524;2023-02-28T19:33:16;94078.38;;;-11.71